Time;durP1;ratioP1;P1;durP2;ratioP2;P2;SDS_P1;SDS_P2;PMS_P1;PMS_P2;Temp;Humidity;BMP_temperature;BMP_pressure;BME280_temperature;BME280_humidity;BME280_pressure;Samples;Min_cycle;Max_cycle;Signal;HPM_P1;HPM_P2
2021/10/22 00:02:24;;;;;;;4.90;0.60;;;;;;;14.30;49.79;95147.63;5012862;28;20018;-79
2021/10/22 00:04:49;;;;;;;3.63;1.05;;;;;;;14.11;50.51;95152.63;5011876;28;20106;-80
2021/10/22 00:07:16;;;;;;;2.33;0.60;;;;;;;13.87;51.43;95163.16;5012257;28;20545;-79
2021/10/22 00:09:41;;;;;;;2.85;0.85;;;;;;;13.63;51.86;95169.13;5010898;28;20038;-80
2021/10/22 00:12:07;;;;;;;3.03;0.63;;;;;;;14.27;50.36;95172.34;5012033;28;20535;-79
2021/10/22 00:14:32;;;;;;;6.07;0.68;;;;;;;13.73;51.61;95176.78;5013353;28;20034;-79
2021/10/22 00:16:58;;;;;;;3.30;0.70;;;;;;;14.31;50.31;95159.09;5012152;28;20400;-79
2021/10/22 00:19:23;;;;;;;3.17;0.57;;;;;;;14.64;49.52;95169.91;5011795;28;20038;-79
2021/10/22 00:21:49;;;;;;;2.53;0.82;;;;;;;14.66;49.33;95174.91;5011923;28;20076;-78
2021/10/22 00:24:14;;;;;;;1.75;0.40;;;;;;;15.02;48.03;95176.94;5011589;28;20043;-79
2021/10/22 00:26:40;;;;;;;3.20;0.63;;;;;;;15.36;47.77;95188.41;5013880;28;20022;-78
2021/10/22 00:29:05;;;;;;;2.08;0.60;;;;;;;14.59;49.51;95191.50;5011242;28;20062;-80
2021/10/22 00:31:31;;;;;;;1.63;0.50;;;;;;;14.61;49.70;95199.22;5011647;28;20037;-78
2021/10/22 00:33:57;;;;;;;3.60;0.50;;;;;;;14.55;49.61;95194.06;5011225;28;20050;-78
2021/10/22 00:36:23;;;;;;;1.55;0.47;;;;;;;14.29;50.61;95185.41;5012038;28;20030;-80
2021/10/22 00:38:48;;;;;;;3.95;0.90;;;;;;;13.82;52.67;95206.94;5011365;28;20026;-78
2021/10/22 00:41:15;;;;;;;2.22;0.50;;;;;;;14.57;50.62;95217.81;5012478;28;20030;-79
2021/10/22 00:43:40;;;;;;;3.08;0.70;;;;;;;14.76;50.85;95215.44;5011856;28;20744;-79
2021/10/22 00:46:06;;;;;;;2.95;0.63;;;;;;;13.98;52.87;95213.28;5011457;28;20169;-79
2021/10/22 00:48:31;;;;;;;2.13;0.57;;;;;;;14.36;52.44;95217.00;5011741;28;20044;-78
2021/10/22 00:50:59;;;;;;;3.03;0.57;;;;;;;13.99;53.35;95222.88;5011547;28;20030;-79
2021/10/22 00:53:26;;;;;;;2.67;1.08;;;;;;;13.93;53.78;95240.22;5011896;28;20026;-79
2021/10/22 00:55:52;;;;;;;2.33;0.57;;;;;;;13.93;54.38;95224.19;5010288;28;20404;-78
2021/10/22 00:58:18;;;;;;;2.88;0.82;;;;;;;14.03;54.67;95231.06;5011263;28;20052;-79
2021/10/22 01:00:44;;;;;;;5.05;0.85;;;;;;;13.84;55.72;95239.47;5006920;28;20495;-79
2021/10/22 01:03:09;;;;;;;0.75;0.43;;;;;;;12.87;59.03;95250.69;5009725;28;20120;-80
2021/10/22 01:05:35;;;;;;;2.80;1.10;;;;;;;12.52;62.60;95241.91;5013185;28;20022;-79
2021/10/22 01:08:01;;;;;;;1.05;0.50;;;;;;;12.95;61.58;95257.94;5011242;28;20488;-78
2021/10/22 01:10:26;;;;;;;2.47;0.60;;;;;;;12.45;64.46;95242.38;5010802;28;20034;-77
2021/10/22 01:12:54;;;;;;;2.80;0.80;;;;;;;12.53;63.35;95232.00;5025857;28;20050;-79
2021/10/22 01:15:21;;;;;;;4.25;0.70;;;;;;;12.23;65.20;95247.81;5010373;28;20046;-80
2021/10/22 01:17:47;;;;;;;5.32;0.70;;;;;;;12.35;65.49;95249.91;5012085;28;20022;-79
2021/10/22 01:20:22;;;;;;;2.20;0.50;;;;;;;12.35;65.79;95248.00;5011080;28;20038;-79
2021/10/22 01:22:50;;;;;;;4.47;0.70;;;;;;;12.37;66.17;95250.34;5010674;28;20145;-80
2021/10/22 01:25:18;;;;;;;3.83;0.60;;;;;;;12.68;64.76;95239.53;5011056;28;20411;-80
2021/10/22 01:27:46;;;;;;;2.45;0.63;;;;;;;12.49;65.57;95246.00;5010754;28;20086;-80
2021/10/22 01:30:13;;;;;;;4.32;0.90;;;;;;;12.77;64.87;95250.22;5006810;28;20037;-79
2021/10/22 01:32:39;;;;;;;3.08;0.80;;;;;;;12.04;66.80;95228.66;5012510;28;20556;-79
2021/10/22 01:35:07;;;;;;;6.25;0.95;;;;;;;12.09;67.03;95242.63;5010768;28;20038;-79
2021/10/22 01:37:33;;;;;;;2.38;0.70;;;;;;;12.41;65.66;95238.75;5011012;28;20492;-79
2021/10/22 01:39:58;;;;;;;3.85;0.60;;;;;;;12.29;65.85;95243.94;5010579;28;20034;-80
2021/10/22 01:42:24;;;;;;;5.32;0.80;;;;;;;12.16;66.82;95239.50;5010742;28;20399;-79
2021/10/22 01:44:50;;;;;;;1.58;0.70;;;;;;;12.54;64.97;95234.38;5010075;28;20040;-81
2021/10/22 01:47:17;;;;;;;6.47;1.55;;;;;;;11.95;67.65;95242.75;5012917;28;20041;-81
2021/10/22 01:49:46;;;;;;;5.05;1.65;;;;;;;12.44;66.19;95246.16;5010113;28;20088;-81
2021/10/22 01:52:11;;;;;;;7.75;0.93;;;;;;;11.95;67.44;95237.41;5009979;28;20034;-80
2021/10/22 01:54:37;;;;;;;2.38;0.70;;;;;;;11.58;68.94;95233.34;5010165;28;20096;-79
2021/10/22 01:57:04;;;;;;;3.88;0.85;;;;;;;11.95;67.90;95248.06;5009374;28;20095;-79
2021/10/22 01:59:29;;;;;;;4.20;1.02;;;;;;;11.66;69.72;95243.25;5010890;28;20430;-78
2021/10/22 02:01:55;;;;;;;6.57;1.20;;;;;;;12.18;68.22;95235.44;5008776;28;20046;-79
2021/10/22 02:04:20;;;;;;;3.90;1.17;;;;;;;11.78;68.49;95239.22;5009844;28;20495;-78
2021/10/22 02:06:48;;;;;;;3.88;0.93;;;;;;;11.77;69.30;95250.94;5010517;28;20046;-79
2021/10/22 02:09:14;;;;;;;5.07;1.38;;;;;;;12.36;67.81;95252.25;5009819;28;20030;-77
2021/10/22 02:11:39;;;;;;;3.38;0.93;;;;;;;12.08;68.57;95248.25;5012112;28;20158;-79
2021/10/22 02:14:05;;;;;;;5.80;1.40;;;;;;;12.34;67.06;95246.44;5009594;28;20535;-78
2021/10/22 02:16:30;;;;;;;5.65;0.90;;;;;;;11.95;68.55;95244.63;5010096;28;20092;-78
2021/10/22 02:18:55;;;;;;;3.92;1.40;;;;;;;12.53;66.85;95251.47;5009614;28;20492;-79
2021/10/22 02:21:21;;;;;;;5.50;1.42;;;;;;;12.77;66.16;95245.66;5009976;28;20086;-78
2021/10/22 02:23:47;;;;;;;4.80;1.17;;;;;;;12.54;67.14;95274.41;5009531;28;20038;-68
2021/10/22 02:26:12;;;;;;;3.03;1.35;;;;;;;12.15;67.33;95253.94;5011800;28;20030;-78
2021/10/22 02:28:38;;;;;;;4.18;1.33;;;;;;;12.46;67.43;95259.16;5011723;28;20030;-79
2021/10/22 02:31:03;;;;;;;4.13;1.23;;;;;;;12.63;66.92;95255.72;5013196;28;20046;-78
2021/10/22 02:33:29;;;;;;;4.30;1.27;;;;;;;13.09;65.37;95251.59;5013157;28;20129;-78
2021/10/22 02:35:54;;;;;;;3.80;1.30;;;;;;;12.67;65.97;95262.78;5013659;28;20022;-78
2021/10/22 02:38:19;;;;;;;6.00;1.65;;;;;;;12.53;67.04;95256.03;5015610;28;20653;-78
2021/10/22 02:40:45;;;;;;;2.67;1.13;;;;;;;12.42;66.90;95253.66;5013211;28;20030;-79
2021/10/22 02:43:10;;;;;;;5.70;1.20;;;;;;;13.01;65.61;95256.66;5013237;28;20037;-78
2021/10/22 02:45:36;;;;;;;2.10;1.17;;;;;;;12.54;67.52;95276.25;5012894;28;20678;-79
2021/10/22 02:48:01;;;;;;;2.67;0.90;;;;;;;12.50;67.45;95268.13;5012189;28;20050;-79
2021/10/22 02:50:26;;;;;;;3.70;1.00;;;;;;;12.41;67.44;95259.31;5014650;28;20015;-79
2021/10/22 02:52:52;;;;;;;3.90;1.05;;;;;;;12.04;68.52;95256.09;5013030;28;20038;-79
2021/10/22 02:55:18;;;;;;;3.90;1.65;;;;;;;12.34;67.87;95262.44;5013246;28;20125;-79
2021/10/22 02:57:44;;;;;;;4.80;1.40;;;;;;;12.22;69.18;95267.59;5013371;28;20520;-79
2021/10/22 03:00:11;;;;;;;4.85;1.02;;;;;;;12.25;69.76;95282.97;5010833;28;20034;-78
2021/10/22 03:02:37;;;;;;;3.97;1.42;;;;;;;12.31;68.43;95292.41;5013494;28;20037;-78
2021/10/22 03:05:03;;;;;;;1.13;0.77;;;;;;;11.52;70.22;95282.53;5012892;28;20038;-78
2021/10/22 03:07:28;;;;;;;1.83;1.45;;;;;;;11.70;70.30;95294.03;5012847;28;20407;-78
2021/10/22 03:09:53;;;;;;;2.72;1.67;;;;;;;11.63;70.27;95297.16;5012233;28;20049;-77
2021/10/22 03:12:19;;;;;;;4.65;2.78;;;;;;;11.89;68.51;95253.88;5011467;28;20110;-77
2021/10/22 03:14:44;;;;;;;2.72;1.50;;;;;;;11.52;69.67;95287.84;5012709;28;20069;-77
2021/10/22 03:17:10;;;;;;;4.70;3.05;;;;;;;12.30;68.55;95285.50;5011629;28;20389;-77
2021/10/22 03:19:35;;;;;;;4.65;2.80;;;;;;;12.30;67.90;95285.50;5011929;28;20041;-77
2021/10/22 03:22:00;;;;;;;5.50;3.70;;;;;;;12.17;68.84;95289.06;5011974;28;20092;-76
2021/10/22 03:24:26;;;;;;;6.97;4.20;;;;;;;11.88;68.81;95285.06;5010406;28;20041;-76
2021/10/22 03:26:51;;;;;;;5.72;3.83;;;;;;;11.71;69.74;95288.41;5012512;28;20053;-79
2021/10/22 03:29:16;;;;;;;7.85;4.45;;;;;;;12.28;67.97;95298.34;5013558;28;20022;-78
2021/10/22 03:31:42;;;;;;;6.00;4.85;;;;;;;12.15;67.66;95316.06;5011822;28;20129;-79
2021/10/22 03:34:08;;;;;;;6.35;4.55;;;;;;;12.09;68.27;95303.97;5011850;28;20049;-77
2021/10/22 03:36:37;;;;;;;6.63;4.95;;;;;;;12.37;66.27;95296.50;5012340;28;20096;-78
2021/10/22 03:39:04;;;;;;;7.75;5.72;;;;;;;12.83;65.75;95310.38;5010739;28;20025;-77
2021/10/22 03:41:30;;;;;;;6.05;4.50;;;;;;;12.01;67.77;95314.59;5014151;28;20571;-77
2021/10/22 03:43:55;;;;;;;6.50;5.20;;;;;;;13.35;64.67;95313.81;5011324;28;20054;-77
2021/10/22 03:46:20;;;;;;;6.35;5.03;;;;;;;12.73;65.37;95303.44;5010977;28;20034;-78
2021/10/22 03:48:46;;;;;;;5.78;4.85;;;;;;;12.11;67.10;95303.63;5009835;28;20046;-79
2021/10/22 03:51:12;;;;;;;5.80;4.88;;;;;;;12.22;66.88;95318.25;5010974;28;20066;-79
2021/10/22 03:53:38;;;;;;;7.88;4.60;;;;;;;12.76;64.91;95310.84;5012262;28;20104;-77
2021/10/22 03:56:04;;;;;;;6.68;4.68;;;;;;;12.66;65.58;95300.47;5010656;28;20555;-79
2021/10/22 03:58:29;;;;;;;4.82;4.22;;;;;;;12.55;64.13;95317.88;5010337;28;20500;-78
2021/10/22 04:00:55;;;;;;;6.05;4.95;;;;;;;12.88;64.06;95311.00;5009941;28;20510;-77
2021/10/22 04:03:20;;;;;;;5.38;4.82;;;;;;;13.11;64.42;95314.31;5011021;28;20076;-78
2021/10/22 04:05:46;;;;;;;7.75;5.30;;;;;;;13.37;63.90;95308.19;5013351;28;20447;-77
2021/10/22 04:08:11;;;;;;;8.27;5.40;;;;;;;12.41;64.63;95307.31;5011865;28;20373;-77
2021/10/22 04:10:36;;;;;;;6.93;5.25;;;;;;;12.05;66.49;95305.66;5011300;28;20030;-80
2021/10/22 04:13:02;;;;;;;9.27;5.80;;;;;;;12.38;65.56;95322.06;5010959;28;20073;-79
2021/10/22 04:15:28;;;;;;;8.52;6.47;;;;;;;12.40;66.41;95333.22;5010527;28;20093;-77
2021/10/22 04:17:53;;;;;;;7.15;5.63;;;;;;;12.43;65.31;95311.25;5010149;28;20112;-79
2021/10/22 04:20:19;;;;;;;8.27;6.20;;;;;;;12.28;66.25;95317.00;5012978;28;20018;-78
2021/10/22 04:22:44;;;;;;;12.60;7.55;;;;;;;11.43;66.54;95326.97;5010218;28;20033;-78
2021/10/22 04:25:10;;;;;;;17.25;9.10;;;;;;;11.53;67.04;95321.38;5011640;28;20034;-78
2021/10/22 04:27:36;;;;;;;8.32;6.30;;;;;;;10.43;69.91;95316.47;5026368;28;20104;-77
2021/10/22 04:30:06;;;;;;;16.30;7.43;;;;;;;10.56;70.02;95328.16;5006346;28;20025;-75
2021/10/22 04:32:32;;;;;;;37.20;9.00;;;;;;;10.85;68.92;95333.09;5026902;28;20025;-76
2021/10/22 04:34:57;;;;;;;27.90;11.48;;;;;;;11.79;66.40;95337.50;5024386;28;20042;-74
2021/10/22 04:42:40;;;;;;;22.40;11.10;;;;;;;11.45;67.66;95325.56;5008984;28;20554;-72
2021/10/22 04:45:09;;;;;;;21.17;10.48;;;;;;;11.11;68.79;95328.00;5008361;28;20014;-75
2021/10/22 04:47:34;;;;;;;28.83;13.05;;;;;;;11.64;67.42;95325.38;5010569;28;20397;-75
2021/10/22 04:50:01;;;;;;;24.65;10.90;;;;;;;10.92;67.52;95322.84;5007376;28;20030;-75
2021/10/22 04:52:26;;;;;;;13.85;8.77;;;;;;;9.97;70.33;95337.81;5008719;28;20042;-73
2021/10/22 04:54:51;;;;;;;21.88;9.93;;;;;;;10.96;67.43;95323.03;5023096;28;20042;-74
2021/10/22 04:57:17;;;;;;;25.33;11.80;;;;;;;11.08;67.65;95328.59;5007700;28;20057;-73
2021/10/22 04:59:42;;;;;;;17.05;9.45;;;;;;;9.94;70.06;95362.34;5010605;28;20707;-76
2021/10/22 05:02:08;;;;;;;22.90;10.60;;;;;;;10.38;68.49;95346.59;5006846;28;20069;-76
2021/10/22 05:04:33;;;;;;;18.75;9.93;;;;;;;10.38;68.48;95335.97;5008546;28;20572;-76
2021/10/22 05:06:58;;;;;;;30.17;11.43;;;;;;;10.43;69.00;95328.97;5009084;28;20377;-76
2021/10/22 05:09:24;;;;;;;24.33;10.65;;;;;;;10.55;68.49;95340.69;5008329;28;20041;-74
2021/10/22 05:11:49;;;;;;;25.63;11.13;;;;;;;10.00;68.62;95334.59;5007372;28;20416;-75
2021/10/22 05:14:14;;;;;;;27.20;10.75;;;;;;;9.70;71.15;95341.25;5010764;28;20452;-75
2021/10/22 05:16:40;;;;;;;31.50;12.23;;;;;;;9.94;70.44;95357.03;5008409;28;20038;-75
2021/10/22 05:19:05;;;;;;;29.63;13.30;;;;;;;10.79;68.16;95332.44;5023689;28;20030;-75
2021/10/22 05:21:30;;;;;;;36.80;13.57;;;;;;;10.73;67.01;95338.97;5007422;28;20046;-75
2021/10/22 05:23:56;;;;;;;35.42;14.23;;;;;;;11.16;66.07;95335.88;5008839;28;20097;-75
2021/10/22 05:26:21;;;;;;;34.03;12.93;;;;;;;10.40;68.00;95364.94;5011252;28;20033;-76
2021/10/22 05:28:47;;;;;;;25.75;12.38;;;;;;;9.76;70.30;95361.31;5007843;28;20077;-79
2021/10/22 05:31:12;;;;;;;36.30;15.18;;;;;;;10.41;68.99;95355.88;5008945;28;20239;-76
2021/10/22 05:33:37;;;;;;;33.78;13.80;;;;;;;10.84;67.04;95358.16;5008783;28;20733;-76
2021/10/22 05:36:03;;;;;;;32.92;14.07;;;;;;;10.71;67.70;95364.31;5009394;28;20030;-75
2021/10/22 05:38:28;;;;;;;31.65;12.75;;;;;;;10.24;69.01;95372.44;5009932;28;20022;-76
2021/10/22 05:40:54;;;;;;;39.08;14.65;;;;;;;10.88;67.97;95345.81;5008992;28;20042;-76
2021/10/22 05:43:19;;;;;;;43.28;16.10;;;;;;;11.42;65.09;95376.78;5009090;28;20384;-75
2021/10/22 05:45:45;;;;;;;32.03;14.23;;;;;;;10.70;67.07;95384.81;5023106;28;20109;-77
2021/10/22 05:48:10;;;;;;;43.63;16.75;;;;;;;11.75;64.80;95355.19;5024260;28;20733;-76
2021/10/22 05:50:39;;;;;;;35.90;14.57;;;;;;;10.92;66.96;95381.41;5026525;28;20049;-78
2021/10/22 05:53:12;;;;;;;39.28;15.02;;;;;;;10.56;67.29;95376.06;5008052;28;20041;-79
2021/10/22 05:55:38;;;;;;;35.50;14.35;;;;;;;10.71;66.91;95391.69;5009157;28;20042;-80
2021/10/22 05:58:05;;;;;;;39.67;15.52;;;;;;;11.50;64.86;95364.63;5009861;28;20049;-78
2021/10/22 06:00:30;;;;;;;35.75;15.20;;;;;;;11.27;66.22;95381.69;5008531;28;20037;-84
2021/10/22 06:02:57;;;;;;;42.78;16.38;;;;;;;11.29;65.19;95390.16;5010293;28;20053;-75
2021/10/22 06:05:22;;;;;;;52.80;17.90;;;;;;;11.79;64.98;95382.81;5013700;28;20121;-74
2021/10/22 06:07:47;;;;;;;49.47;17.13;;;;;;;11.95;64.55;95389.38;5028612;28;20066;-70
2021/10/22 06:10:13;;;;;;;46.25;17.10;;;;;;;12.20;63.27;95392.47;5009807;28;20054;-74
2021/10/22 06:12:39;;;;;;;34.85;14.65;;;;;;;11.30;63.93;95403.16;5011924;28;20041;-78
2021/10/22 06:15:05;;;;;;;30.60;14.27;;;;;;;11.32;64.85;95385.03;5011310;28;20038;-71
2021/10/22 06:17:30;;;;;;;24.20;13.05;;;;;;;11.02;64.33;95362.53;5020035;28;20038;-81
2021/10/22 06:20:01;;;;;;;25.27;13.20;;;;;;;11.14;65.12;95415.25;5014231;28;20022;-77
2021/10/22 06:25:04;;;;;;;25.17;12.18;;;;;;;11.02;63.71;95385.72;5024248;28;20068;-77
2021/10/22 06:27:30;;;;;;;24.75;13.07;;;;;;;10.81;65.94;95402.13;5011670;28;20507;-77
2021/10/22 06:29:56;;;;;;;35.10;15.00;;;;;;;11.14;65.21;95413.38;5011741;28;20021;-70
2021/10/22 06:32:21;;;;;;;29.95;14.27;;;;;;;11.37;65.41;95424.06;5013553;28;20034;-79
2021/10/22 06:34:47;;;;;;;32.92;15.38;;;;;;;11.11;64.34;95389.25;5010061;28;20057;-75
2021/10/22 06:37:13;;;;;;;33.20;14.32;;;;;;;11.27;63.42;95400.34;5028428;28;20598;-87
2021/10/22 06:39:38;;;;;;;40.50;16.20;;;;;;;12.19;63.69;95438.91;5011729;28;20030;-83
2021/10/22 06:42:04;;;;;;;32.50;14.73;;;;;;;11.38;64.64;95407.00;5011946;28;20125;-78
2021/10/22 06:44:29;;;;;;;24.75;12.68;;;;;;;10.58;66.62;95430.50;5013051;28;20033;-70
2021/10/22 06:46:55;;;;;;;26.73;14.48;;;;;;;11.33;64.62;95426.53;5027506;28;20065;-78
2021/10/22 06:49:22;;;;;;;29.33;13.10;;;;;;;11.40;65.31;95426.91;5011797;28;20045;-76
2021/10/22 06:51:47;;;;;;;19.90;9.48;;;;;;;11.29;64.58;95409.59;5012375;28;20488;-81
2021/10/22 06:54:13;;;;;;;20.42;10.20;;;;;;;11.28;61.94;95431.19;5011714;28;20050;-76
2021/10/22 06:56:38;;;;;;;20.63;10.15;;;;;;;10.82;65.75;95424.19;5013282;28;20046;-73
2021/10/22 06:59:03;;;;;;;23.60;11.07;;;;;;;11.02;65.08;95430.97;5010258;28;20578;-75
2021/10/22 07:01:29;;;;;;;20.98;10.32;;;;;;;10.91;66.62;95433.06;5010688;28;20034;-78
2021/10/22 07:03:54;;;;;;;25.02;10.90;;;;;;;11.25;63.61;95427.25;5008359;28;20034;-74
2021/10/22 07:09:03;;;;;;;20.30;10.45;;;;;;;10.75;65.29;95429.94;5010329;28;20407;-73
2021/10/22 07:11:29;;;;;;;21.95;9.80;;;;;;;10.72;66.59;95443.81;5013501;28;20026;-75
2021/10/22 07:13:58;;;;;;;16.88;8.98;;;;;;;10.53;66.99;95451.88;5010278;28;20044;-74
2021/10/22 07:16:30;;;;;;;28.77;11.75;;;;;;;11.57;65.07;95447.56;5011050;28;20085;-74
2021/10/22 07:18:55;;;;;;;;;;;;;;;11.76;62.85;95457.25;5026368;28;20034;-74
2021/10/22 07:21:21;;;;;;;21.50;10.45;;;;;;;11.32;63.38;95443.63;5026489;28;20000;-76
2021/10/22 07:23:50;;;;;;;21.70;9.68;;;;;;;11.74;64.47;95449.56;5013021;28;20475;-75
2021/10/22 07:26:17;;;;;;;24.67;9.80;;;;;;;11.34;64.48;95457.41;5010555;28;20100;-75
2021/10/22 07:28:44;;;;;;;24.98;10.43;;;;;;;12.19;62.37;95454.91;5010815;28;20328;-75
2021/10/22 07:31:10;;;;;;;28.70;9.18;;;;;;;12.02;62.97;95470.78;5012031;28;20041;-77
2021/10/22 07:33:40;;;;;;;22.35;8.70;;;;;;;11.62;62.39;95483.97;5012085;28;20041;-77
2021/10/22 07:36:08;;;;;;;28.52;8.15;;;;;;;11.50;62.41;95487.16;5011584;28;20677;-71
2021/10/22 07:38:34;;;;;;;23.83;8.50;;;;;;;10.97;65.15;95481.66;5012371;28;20068;-76
2021/10/22 07:41:00;;;;;;;21.63;8.07;;;;;;;10.52;66.41;95500.06;5010492;28;20045;-76
2021/10/22 07:43:25;;;;;;;19.67;8.00;;;;;;;11.33;64.90;95495.00;5010234;28;20045;-74
2021/10/22 07:45:51;;;;;;;22.38;9.32;;;;;;;11.59;64.05;95506.66;5010719;28;20058;-75
2021/10/22 07:48:16;;;;;;;13.05;7.65;;;;;;;10.69;66.53;95513.56;5009445;28;20065;-76
2021/10/22 07:50:42;;;;;;;22.83;9.77;;;;;;;11.24;65.11;95521.53;5011009;28;20018;-76
2021/10/22 07:53:08;;;;;;;19.30;9.80;;;;;;;11.55;64.21;95512.88;5025246;28;20395;-77
2021/10/22 07:55:35;;;;;;;16.55;8.88;;;;;;;11.30;63.79;95512.34;5009380;28;20038;-78
2021/10/22 07:58:02;;;;;;;17.15;8.95;;;;;;;11.34;64.69;95509.88;5011026;28;20038;-77
2021/10/22 08:00:28;;;;;;;9.38;6.80;;;;;;;10.63;66.00;95530.72;5010546;28;20038;-78
2021/10/22 08:02:53;;;;;;;9.77;6.35;;;;;;;10.43;66.74;95523.09;5010135;28;20088;-80
2021/10/22 08:05:21;;;;;;;12.27;6.32;;;;;;;10.77;65.96;95525.41;5012075;28;20021;-79
2021/10/22 08:07:48;;;;;;;15.95;6.65;;;;;;;12.07;64.02;95526.66;5025412;28;20041;-77
2021/10/22 08:10:13;;;;;;;8.10;4.88;;;;;;;11.74;63.93;95526.84;5010977;28;20038;-77
2021/10/22 08:12:39;;;;;;;11.88;6.05;;;;;;;12.09;61.69;95529.81;5010402;28;20423;-77
2021/10/22 08:15:05;;;;;;;9.88;6.20;;;;;;;12.08;62.34;95544.22;5010605;28;20413;-80
2021/10/22 08:17:30;;;;;;;7.68;6.03;;;;;;;12.09;62.78;95562.59;5007644;28;20022;-75
2021/10/22 08:20:04;;;;;;;11.45;5.35;;;;;;;11.62;61.94;95523.94;5026041;28;20384;-81
2021/10/22 08:22:31;;;;;;;9.65;5.15;;;;;;;11.53;63.70;95526.53;5012626;28;20065;-81
2021/10/22 08:25:05;;;;;;;10.27;5.10;;;;;;;12.57;62.56;95559.28;5012117;28;20034;-82
2021/10/22 08:27:36;;;;;;;6.97;4.60;;;;;;;10.73;64.23;95570.44;5011182;28;20451;-83
2021/10/22 08:30:04;;;;;;;7.18;3.65;;;;;;;10.81;65.36;95580.41;5011689;28;20030;-82
2021/10/22 08:32:31;;;;;;;4.85;3.45;;;;;;;10.94;65.33;95566.31;5012928;28;20018;-82
2021/10/22 08:35:03;;;;;;;5.38;4.13;;;;;;;10.92;64.26;95573.81;5011614;28;20053;-83
2021/10/22 08:37:30;;;;;;;6.65;3.40;;;;;;;10.42;65.39;95580.81;5026433;28;20065;-82
2021/10/22 08:39:55;;;;;;;3.47;2.92;;;;;;;10.92;63.94;95568.50;5011889;28;20045;-83
2021/10/22 08:42:24;;;;;;;7.85;4.03;;;;;;;11.22;63.92;95582.31;5012016;28;20392;-81
2021/10/22 08:44:51;;;;;;;5.20;3.05;;;;;;;10.87;63.78;95560.59;5011439;28;20026;-81
2021/10/22 08:47:20;;;;;;;4.78;3.33;;;;;;;11.32;63.70;95560.00;5028270;28;20020;-81
2021/10/22 08:49:45;;;;;;;6.22;3.70;;;;;;;12.26;60.35;95577.94;5010421;28;20723;-82
2021/10/22 08:52:11;;;;;;;5.18;2.55;;;;;;;12.29;58.37;95561.31;5010458;28;20054;-78
2021/10/22 08:54:39;;;;;;;8.43;4.00;;;;;;;12.64;58.94;95553.50;5009887;28;20088;-79
2021/10/22 08:57:07;;;;;;;6.72;3.22;;;;;;;13.12;57.73;95582.94;5011443;28;20030;-79
2021/10/22 08:59:33;;;;;;;3.35;3.00;;;;;;;12.97;59.92;95548.63;5027909;28;20064;-77
2021/10/22 09:02:25;;;;;;;5.45;3.17;;;;;;;12.38;58.21;95590.72;5010173;28;20042;-79
2021/10/22 09:04:51;;;;;;;;;;;;;;;13.40;58.05;95586.19;5009335;28;20483;-78
2021/10/22 09:07:20;;;;;;;8.85;2.70;;;;;;;12.87;57.35;95586.28;5009852;28;19918;-78
2021/10/22 09:09:47;;;;;;;4.18;2.40;;;;;;;12.34;58.25;95600.44;5010363;28;20041;-79
2021/10/22 09:12:13;;;;;;;6.13;2.25;;;;;;;11.50;59.56;95588.38;5010764;28;20030;-78
2021/10/22 09:14:57;;;;;;;3.33;2.17;;;;;;;11.73;59.29;95569.81;5012122;28;20037;-77
2021/10/22 09:17:39;;;;;;;6.05;2.88;;;;;;;12.01;59.40;95613.97;5010278;28;20040;-77
2021/10/22 09:20:08;;;;;;;3.78;2.90;;;;;;;12.31;58.73;95609.03;5010096;28;20061;-79
2021/10/22 09:22:34;;;;;;;3.20;2.83;;;;;;;11.86;58.86;95615.09;5009023;28;20771;-78
2021/10/22 09:25:05;;;;;;;3.55;3.10;;;;;;;12.62;60.06;95614.41;5010219;28;20037;-77
2021/10/22 09:27:41;;;;;;;4.35;2.50;;;;;;;11.44;60.21;95616.22;5009257;28;20080;-79
2021/10/22 09:30:29;;;;;;;5.20;3.10;;;;;;;13.10;59.16;95606.47;5008571;28;21412;-77
2021/10/22 09:33:01;;;;;;;4.50;3.10;;;;;;;12.34;57.63;95608.44;5024154;28;20084;-77
2021/10/22 09:35:41;;;;;;;4.03;2.70;;;;;;;12.01;59.00;95615.84;5011772;28;20101;-78
2021/10/22 09:38:29;;;;;;;6.80;2.88;;;;;;;11.58;59.78;95622.31;5008639;28;20038;-78
2021/10/22 09:41:00;;;;;;;3.15;2.22;;;;;;;11.66;60.43;95626.16;5009726;28;20041;-78
2021/10/22 09:43:33;;;;;;;5.23;2.33;;;;;;;10.99;57.96;95623.19;5009284;28;20030;-79
2021/10/22 09:46:09;;;;;;;3.03;2.00;;;;;;;11.56;60.05;95635.13;5009935;28;20038;-77
2021/10/22 09:48:35;;;;;;;5.82;1.73;;;;;;;10.44;59.72;95618.56;5002083;28;20042;-77
2021/10/22 09:51:19;;;;;;;4.65;2.03;;;;;;;11.80;58.09;95632.25;5009332;28;20038;-76
2021/10/22 09:53:45;;;;;;;4.70;2.10;;;;;;;11.12;59.08;95635.75;4991060;28;20030;-80
2021/10/22 09:56:24;;;;;;;2.88;2.15;;;;;;;12.11;57.85;95628.94;4989768;28;20035;-76
2021/10/22 09:58:54;;;;;;;4.32;1.90;;;;;;;11.63;57.46;95632.09;4988779;28;20039;-77
2021/10/22 10:01:19;;;;;;;5.82;1.92;;;;;;;11.87;57.65;95629.19;4990615;28;20046;-77
2021/10/22 10:03:45;;;;;;;2.63;1.55;;;;;;;10.87;59.81;95631.66;5008551;28;20049;-77
2021/10/22 10:06:11;;;;;;;2.85;1.40;;;;;;;11.22;58.58;95634.78;5008701;28;20069;-79
2021/10/22 10:08:39;;;;;;;4.03;1.65;;;;;;;11.49;58.68;95639.31;5026224;28;20022;-77
2021/10/22 10:11:06;;;;;;;6.30;1.95;;;;;;;12.67;56.12;95635.63;5009046;28;20041;-76
2021/10/22 10:13:35;;;;;;;3.80;2.08;;;;;;;12.36;56.71;95630.25;5008608;28;20096;-77
2021/10/22 10:16:04;;;;;;;5.00;2.75;;;;;;;12.53;55.61;95649.03;5008882;28;20031;-76
2021/10/22 10:18:36;;;;;;;3.58;2.08;;;;;;;11.94;56.66;95635.72;5007950;28;20030;-76
2021/10/22 10:21:05;;;;;;;6.38;2.85;;;;;;;12.18;56.57;95629.31;5008578;28;20026;-76
2021/10/22 10:23:32;;;;;;;3.75;2.15;;;;;;;12.76;54.79;95615.13;4990894;28;20026;-75
2021/10/22 10:26:22;;;;;;;5.03;2.10;;;;;;;13.41;52.65;95630.53;4987717;28;20554;-76
2021/10/22 10:28:52;;;;;;;4.40;2.30;;;;;;;12.30;53.96;95631.47;4987313;28;20048;-75
2021/10/22 10:31:47;;;;;;;2.35;1.90;;;;;;;12.51;55.05;95639.78;4988884;28;20519;-75
2021/10/22 10:34:27;;;;;;;4.75;2.38;;;;;;;12.71;54.70;95650.75;5004300;28;20092;-79
2021/10/22 10:36:55;;;;;;;2.58;1.70;;;;;;;12.92;53.35;95645.69;5007468;28;20137;-78
2021/10/22 10:39:46;;;;;;;3.83;2.08;;;;;;;13.70;52.83;95653.25;5008828;28;20072;-82
2021/10/22 10:42:30;;;;;;;3.70;2.05;;;;;;;12.88;53.85;95655.38;5008161;28;20042;-77
2021/10/22 10:44:57;;;;;;;3.30;1.77;;;;;;;11.92;55.57;95653.88;5007332;28;20030;-80
2021/10/22 10:47:31;;;;;;;5.00;1.70;;;;;;;12.11;55.65;95651.06;5011619;28;20033;-82
2021/10/22 10:50:04;;;;;;;3.58;1.85;;;;;;;12.03;55.60;95656.31;5012400;28;20049;-83
2021/10/22 10:52:39;;;;;;;3.30;1.70;;;;;;;12.80;51.82;95648.13;5028406;28;20037;-78
2021/10/22 10:55:13;;;;;;;3.78;1.63;;;;;;;13.12;52.41;95647.03;5011946;28;20044;-78
2021/10/22 10:57:51;;;;;;;5.00;1.60;;;;;;;14.09;50.48;95622.19;5013509;28;20042;-79
2021/10/22 11:00:22;;;;;;;5.30;1.40;;;;;;;12.33;52.23;95642.28;5011237;28;20100;-79
2021/10/22 11:03:13;;;;;;;4.05;1.40;;;;;;;13.29;50.85;95635.66;5027040;28;20022;-79
2021/10/22 11:05:42;;;;;;;3.88;1.45;;;;;;;13.05;50.68;95644.03;5004942;28;20042;-79
2021/10/22 11:08:18;;;;;;;2.83;1.65;;;;;;;13.18;50.95;95631.66;5012901;28;20045;-79
2021/10/22 11:11:03;;;;;;;3.08;1.55;;;;;;;13.48;48.85;95638.88;5011303;28;20124;-81
2021/10/22 11:13:49;;;;;;;4.95;1.73;;;;;;;12.64;51.19;95647.72;5012233;28;20042;-78
2021/10/22 11:16:24;;;;;;;9.10;1.80;;;;;;;13.27;51.75;95635.97;5012427;28;20038;-78
2021/10/22 11:19:19;;;;;;;4.70;1.73;;;;;;;13.96;48.70;95646.06;5015299;28;20073;-79
2021/10/22 11:21:47;;;;;;;4.85;1.90;;;;;;;13.90;49.27;95625.94;5004133;28;20401;-77
2021/10/22 11:24:21;;;;;;;4.10;1.23;;;;;;;12.86;50.85;95630.91;4992731;28;20042;-78
2021/10/22 11:27:16;;;;;;;2.78;1.30;;;;;;;12.78;50.94;95623.63;4994455;28;20037;-78
2021/10/22 11:29:46;;;;;;;4.13;1.63;;;;;;;12.51;51.82;95621.09;4989187;28;20101;-80
2021/10/22 11:32:20;;;;;;;7.90;2.00;;;;;;;14.14;48.86;95609.44;4997650;28;20049;-79
2021/10/22 11:34:56;;;;;;;3.20;1.73;;;;;;;15.32;45.30;95623.25;5012217;28;20046;-80
2021/10/22 11:37:25;;;;;;;4.97;1.50;;;;;;;14.70;47.04;95629.09;5027339;28;20080;-79
2021/10/22 11:39:53;;;;;;;4.88;2.20;;;;;;;14.70;47.01;95594.28;5010438;28;20034;-78
2021/10/22 11:42:28;;;;;;;3.60;1.65;;;;;;;16.36;45.00;95606.50;5011855;28;20041;-79
2021/10/22 11:45:04;;;;;;;5.18;1.85;;;;;;;17.28;43.62;95618.88;5011875;28;20064;-78